SKW420 KLAX-KOAK
Flight info
| Callsign | SKW420 |
|---|---|
| Flight time | 0h 54m |
| Altitude | 36000 |
| Route | LADYJ4 COREZ RGOOD EMZOH4 |
| Aircraft | CRJ7/M-SDFGIRWY/S |
Departure
| Time | 2026-04-25 03:17 |
|---|---|
| Airport | Los Angeles International Airport (KLAX) |
Arrival
| Time | 2026-04-25 04:11 |
|---|---|
| Airport | San Francisco Bay Oakland International Airport (KOAK) |
| Time | Latitude | Longitude | Altitude | Speed | Heading |
|---|---|---|---|---|---|
| 2026-04-25 03:00 | 33.94168 | -118.39352 | 93 ft | 0 kts | 286° |
| 2026-04-25 03:08 | 33.94166 | -118.39346 | 94 ft | 3 kts | 285° |
| 2026-04-25 03:08 | 33.94164 | -118.39324 | 94 ft | 2 kts | 255° |
| 2026-04-25 03:08 | 33.94171 | -118.39315 | 95 ft | 2 kts | 193° |
| 2026-04-25 03:08 | 33.94182 | -118.39314 | 94 ft | 2 kts | 179° |
| 2026-04-25 03:09 | 33.94193 | -118.39314 | 93 ft | 2 kts | 176° |
| 2026-04-25 03:09 | 33.94195 | -118.39314 | 93 ft | 0 kts | 176° |
| 2026-04-25 03:10 | 33.94193 | -118.39314 | 93 ft | 1 kts | 176° |
| 2026-04-25 03:11 | 33.94177 | -118.39313 | 95 ft | 2 kts | 180° |
| 2026-04-25 03:11 | 33.94163 | -118.39314 | 93 ft | 2 kts | 181° |
| 2026-04-25 03:11 | 33.94148 | -118.39314 | 97 ft | 2 kts | 182° |
| 2026-04-25 03:11 | 33.94135 | -118.39315 | 94 ft | 2 kts | 182° |
| 2026-04-25 03:12 | 33.94118 | -118.39316 | 95 ft | 3 kts | 183° |
| 2026-04-25 03:12 | 33.94097 | -118.39317 | 95 ft | 4 kts | 176° |
| 2026-04-25 03:12 | 33.94057 | -118.39285 | 95 ft | 9 kts | 121° |
| 2026-04-25 03:12 | 33.94019 | -118.39235 | 99 ft | 8 kts | 149° |
| 2026-04-25 03:13 | 33.93975 | -118.39192 | 100 ft | 8 kts | 115° |
| 2026-04-25 03:13 | 33.93969 | -118.39123 | 99 ft | 11 kts | 86° |
| 2026-04-25 03:13 | 33.93980 | -118.39009 | 100 ft | 16 kts | 82° |
| 2026-04-25 03:13 | 33.93994 | -118.38867 | 100 ft | 18 kts | 82° |
| 2026-04-25 03:14 | 33.94004 | -118.38768 | 100 ft | 18 kts | 83° |
| 2026-04-25 03:14 | 33.94020 | -118.38616 | 101 ft | 18 kts | 82° |
| 2026-04-25 03:14 | 33.94036 | -118.38464 | 101 ft | 18 kts | 83° |
| 2026-04-25 03:14 | 33.94051 | -118.38318 | 101 ft | 17 kts | 83° |
| 2026-04-25 03:15 | 33.94066 | -118.38168 | 101 ft | 18 kts | 83° |
| 2026-04-25 03:15 | 33.94078 | -118.38052 | 101 ft | 5 kts | 85° |
| 2026-04-25 03:15 | 33.94074 | -118.38027 | 101 ft | 0 kts | 110° |
| 2026-04-25 03:15 | 33.94073 | -118.38024 | 101 ft | 1 kts | 114° |
| 2026-04-25 03:16 | 33.94048 | -118.38002 | 104 ft | 7 kts | 164° |
| 2026-04-25 03:16 | 33.94002 | -118.38006 | 107 ft | 7 kts | 218° |
| 2026-04-25 03:16 | 33.93978 | -118.38095 | 108 ft | 17 kts | 263° |
| 2026-04-25 03:16 | 33.93933 | -118.38522 | 108 ft | 90 kts | 263° |
| 2026-04-25 03:17 | 33.93822 | -118.39557 | 143 ft | 151 kts | 263° |
| 2026-04-25 03:17 | 33.93687 | -118.40850 | 860 ft | 156 kts | 263° |
| 2026-04-25 03:17 | 33.93553 | -118.42140 | 1795 ft | 154 kts | 262° |
| 2026-04-25 03:17 | 33.93403 | -118.43479 | 2383 ft | 181 kts | 263° |
| 2026-04-25 03:18 | 33.93232 | -118.45123 | 2942 ft | 212 kts | 263° |
| 2026-04-25 03:18 | 33.93018 | -118.46953 | 3804 ft | 228 kts | 261° |
| 2026-04-25 03:18 | 33.92771 | -118.48897 | 4725 ft | 242 kts | 261° |
| 2026-04-25 03:18 | 33.92483 | -118.50951 | 5682 ft | 253 kts | 260° |
| 2026-04-25 03:19 | 33.92175 | -118.53082 | 6619 ft | 265 kts | 260° |
| 2026-04-25 03:19 | 33.91863 | -118.55310 | 7501 ft | 272 kts | 261° |
| 2026-04-25 03:19 | 33.91546 | -118.57559 | 8367 ft | 274 kts | 260° |
| 2026-04-25 03:19 | 33.91219 | -118.59839 | 9181 ft | 278 kts | 261° |
| 2026-04-25 03:20 | 33.91246 | -118.62140 | 10045 ft | 280 kts | 281° |
| 2026-04-25 03:20 | 33.92014 | -118.64337 | 10549 ft | 296 kts | 303° |
| 2026-04-25 03:20 | 33.93610 | -118.66078 | 10729 ft | 327 kts | 328° |
| 2026-04-25 03:20 | 33.95820 | -118.67018 | 11205 ft | 341 kts | 342° |
| 2026-04-25 03:21 | 33.98124 | -118.67669 | 11964 ft | 348 kts | 347° |
| 2026-04-25 03:21 | 34.00573 | -118.67829 | 12731 ft | 353 kts | 356° |
| 2026-04-25 03:21 | 34.03005 | -118.67684 | 13606 ft | 355 kts | 360° |
| 2026-04-25 03:21 | 34.05479 | -118.67402 | 14282 ft | 360 kts | 0° |
| 2026-04-25 03:22 | 34.07980 | -118.67092 | 15000 ft | 361 kts | 358° |
| 2026-04-25 03:22 | 34.10486 | -118.67401 | 15304 ft | 364 kts | 338° |
| 2026-04-25 03:22 | 34.12689 | -118.68793 | 15962 ft | 354 kts | 317° |
| 2026-04-25 03:22 | 34.14579 | -118.70647 | 16830 ft | 349 kts | 315° |
| 2026-04-25 03:23 | 34.16511 | -118.72482 | 17352 ft | 357 kts | 319° |
| 2026-04-25 03:23 | 34.18613 | -118.74126 | 17979 ft | 363 kts | 324° |
| 2026-04-25 03:23 | 34.20863 | -118.75569 | 18565 ft | 367 kts | 327° |
| 2026-04-25 03:23 | 34.23159 | -118.76942 | 19115 ft | 370 kts | 328° |
| 2026-04-25 03:24 | 34.25469 | -118.78324 | 19667 ft | 371 kts | 328° |
| 2026-04-25 03:24 | 34.27791 | -118.79717 | 20204 ft | 373 kts | 327° |
| 2026-04-25 03:24 | 34.30103 | -118.81154 | 20725 ft | 375 kts | 327° |
| 2026-04-25 03:24 | 34.32432 | -118.82610 | 21239 ft | 377 kts | 326° |
| 2026-04-25 03:25 | 34.34760 | -118.84073 | 21730 ft | 379 kts | 326° |
| 2026-04-25 03:25 | 34.37104 | -118.85550 | 22202 ft | 381 kts | 327° |
| 2026-04-25 03:25 | 34.39459 | -118.87029 | 22658 ft | 383 kts | 326° |
| 2026-04-25 03:25 | 34.41832 | -118.88521 | 23077 ft | 385 kts | 326° |
| 2026-04-25 03:26 | 34.44212 | -118.90020 | 23509 ft | 387 kts | 326° |
| 2026-04-25 03:26 | 34.46609 | -118.91531 | 23885 ft | 388 kts | 326° |
| 2026-04-25 03:26 | 34.49013 | -118.93051 | 24369 ft | 390 kts | 326° |
| 2026-04-25 03:26 | 34.51429 | -118.94574 | 24861 ft | 393 kts | 326° |
| 2026-04-25 03:27 | 34.53862 | -118.96112 | 25303 ft | 395 kts | 325° |
| 2026-04-25 03:27 | 34.56312 | -118.97663 | 25681 ft | 398 kts | 326° |
| 2026-04-25 03:27 | 34.58776 | -118.99218 | 26089 ft | 400 kts | 325° |
| 2026-04-25 03:27 | 34.61220 | -119.00765 | 26444 ft | 403 kts | 325° |
| 2026-04-25 03:28 | 34.63709 | -119.02344 | 26881 ft | 405 kts | 325° |
| 2026-04-25 03:28 | 34.66215 | -119.03932 | 27239 ft | 408 kts | 325° |
| 2026-04-25 03:28 | 34.68735 | -119.05536 | 27632 ft | 410 kts | 325° |
| 2026-04-25 03:28 | 34.71275 | -119.07144 | 27994 ft | 412 kts | 325° |
| 2026-04-25 03:29 | 34.73823 | -119.08762 | 28343 ft | 415 kts | 325° |
| 2026-04-25 03:29 | 34.76386 | -119.10391 | 28677 ft | 417 kts | 325° |
| 2026-04-25 03:29 | 34.78962 | -119.12029 | 29019 ft | 419 kts | 325° |
| 2026-04-25 03:29 | 34.81555 | -119.13680 | 29337 ft | 421 kts | 325° |
| 2026-04-25 03:30 | 34.84159 | -119.15342 | 29655 ft | 424 kts | 324° |
| 2026-04-25 03:30 | 34.86777 | -119.17010 | 29944 ft | 426 kts | 324° |
| 2026-04-25 03:30 | 34.89410 | -119.18688 | 30165 ft | 428 kts | 324° |
| 2026-04-25 03:30 | 34.92052 | -119.20376 | 30379 ft | 430 kts | 324° |
| 2026-04-25 03:31 | 34.94702 | -119.22076 | 30595 ft | 432 kts | 324° |
| 2026-04-25 03:31 | 34.97366 | -119.23774 | 30869 ft | 432 kts | 324° |
| 2026-04-25 03:31 | 35.00030 | -119.25477 | 31106 ft | 433 kts | 324° |
| 2026-04-25 03:31 | 35.02702 | -119.27190 | 31322 ft | 435 kts | 324° |
| 2026-04-25 03:32 | 35.05385 | -119.28907 | 31517 ft | 437 kts | 323° |
| 2026-04-25 03:32 | 35.08089 | -119.30639 | 31617 ft | 440 kts | 324° |
| 2026-04-25 03:32 | 35.10800 | -119.32383 | 31869 ft | 440 kts | 323° |
| 2026-04-25 03:32 | 35.13508 | -119.34120 | 32140 ft | 439 kts | 323° |
| 2026-04-25 03:33 | 35.16210 | -119.35857 | 32387 ft | 439 kts | 323° |
| 2026-04-25 03:33 | 35.18908 | -119.37592 | 32629 ft | 438 kts | 323° |
| 2026-04-25 03:33 | 35.21603 | -119.39326 | 32874 ft | 438 kts | 323° |
| 2026-04-25 03:33 | 35.24296 | -119.41060 | 33125 ft | 437 kts | 322° |
| 2026-04-25 03:34 | 35.26986 | -119.42795 | 33367 ft | 436 kts | 322° |
| 2026-04-25 03:34 | 35.29665 | -119.44524 | 33593 ft | 436 kts | 322° |
| 2026-04-25 03:34 | 35.32354 | -119.46262 | 33811 ft | 436 kts | 322° |
| 2026-04-25 03:34 | 35.35035 | -119.47994 | 34009 ft | 435 kts | 322° |
| 2026-04-25 03:35 | 35.37715 | -119.49727 | 34183 ft | 435 kts | 322° |
| 2026-04-25 03:35 | 35.40392 | -119.51459 | 34353 ft | 435 kts | 322° |
| 2026-04-25 03:35 | 35.43064 | -119.53190 | 34520 ft | 434 kts | 322° |
| 2026-04-25 03:35 | 35.45738 | -119.54925 | 34686 ft | 434 kts | 322° |
| 2026-04-25 03:36 | 35.48388 | -119.56641 | 35099 ft | 426 kts | 322° |
| 2026-04-25 03:36 | 35.50990 | -119.58330 | 35520 ft | 420 kts | 322° |
| 2026-04-25 03:36 | 35.53573 | -119.60007 | 35712 ft | 420 kts | 322° |
| 2026-04-25 03:36 | 35.56158 | -119.61688 | 35801 ft | 421 kts | 322° |
| 2026-04-25 03:37 | 35.61377 | -119.65085 | 35860 ft | 427 kts | 322° |
| 2026-04-25 03:37 | 35.66669 | -119.68535 | 35878 ft | 434 kts | 323° |
| 2026-04-25 03:38 | 35.72031 | -119.72038 | 35884 ft | 439 kts | 323° |
| 2026-04-25 03:38 | 35.77419 | -119.75561 | 35878 ft | 443 kts | 323° |
| 2026-04-25 03:39 | 35.82895 | -119.79147 | 35879 ft | 447 kts | 323° |
| 2026-04-25 03:39 | 35.88368 | -119.82817 | 35886 ft | 444 kts | 318° |
| 2026-04-25 03:40 | 35.93251 | -119.87375 | 35883 ft | 440 kts | 313° |
| 2026-04-25 03:40 | 35.97771 | -119.92404 | 35891 ft | 436 kts | 308° |
| 2026-04-25 03:41 | 36.02084 | -119.97692 | 35893 ft | 437 kts | 308° |
| 2026-04-25 03:41 | 36.06446 | -120.02930 | 35888 ft | 435 kts | 309° |
| 2026-04-25 03:42 | 36.10792 | -120.08101 | 35885 ft | 432 kts | 309° |
| 2026-04-25 03:42 | 36.15111 | -120.13248 | 35891 ft | 430 kts | 309° |
| 2026-04-25 03:43 | 36.19407 | -120.18374 | 35895 ft | 428 kts | 309° |
| 2026-04-25 03:43 | 36.23687 | -120.23485 | 35899 ft | 427 kts | 309° |
| 2026-04-25 03:44 | 36.27950 | -120.28593 | 35899 ft | 426 kts | 309° |
| 2026-04-25 03:44 | 36.32204 | -120.33692 | 35907 ft | 425 kts | 308° |
| 2026-04-25 03:45 | 36.34314 | -120.36222 | 35576 ft | 419 kts | 308° |
| 2026-04-25 03:45 | 36.36409 | -120.38742 | 34837 ft | 420 kts | 309° |
| 2026-04-25 03:45 | 36.38518 | -120.41280 | 34017 ft | 424 kts | 309° |
| 2026-04-25 03:45 | 36.40630 | -120.43824 | 33096 ft | 422 kts | 309° |
| 2026-04-25 03:46 | 36.42733 | -120.46356 | 32210 ft | 419 kts | 309° |
| 2026-04-25 03:46 | 36.44817 | -120.48866 | 31345 ft | 417 kts | 310° |
| 2026-04-25 03:46 | 36.46894 | -120.51369 | 30486 ft | 414 kts | 310° |
| 2026-04-25 03:46 | 36.48942 | -120.53843 | 29606 ft | 411 kts | 310° |
| 2026-04-25 03:47 | 36.50985 | -120.56308 | 28668 ft | 404 kts | 310° |
| 2026-04-25 03:47 | 36.52983 | -120.58726 | 27848 ft | 398 kts | 311° |
| 2026-04-25 03:47 | 36.54998 | -120.61053 | 27066 ft | 393 kts | 313° |
| 2026-04-25 03:47 | 36.57038 | -120.63291 | 26302 ft | 389 kts | 314° |
| 2026-04-25 03:48 | 36.59055 | -120.65507 | 25587 ft | 385 kts | 313° |
| 2026-04-25 03:48 | 36.61039 | -120.67711 | 24756 ft | 379 kts | 314° |
| 2026-04-25 03:48 | 36.62992 | -120.69875 | 23951 ft | 374 kts | 314° |
| 2026-04-25 03:48 | 36.64924 | -120.72020 | 23068 ft | 370 kts | 314° |
| 2026-04-25 03:49 | 36.66837 | -120.74148 | 22144 ft | 367 kts | 314° |
| 2026-04-25 03:49 | 36.68735 | -120.76258 | 21238 ft | 364 kts | 315° |
| 2026-04-25 03:49 | 36.70623 | -120.78359 | 20371 ft | 368 kts | 315° |
| 2026-04-25 03:49 | 36.72565 | -120.80522 | 20209 ft | 382 kts | 315° |
| 2026-04-25 03:50 | 36.74598 | -120.82792 | 19730 ft | 403 kts | 315° |
| 2026-04-25 03:50 | 36.76696 | -120.85124 | 19646 ft | 396 kts | 315° |
| 2026-04-25 03:50 | 36.78714 | -120.87359 | 18820 ft | 382 kts | 316° |
| 2026-04-25 03:50 | 36.80670 | -120.89518 | 18016 ft | 370 kts | 316° |
| 2026-04-25 03:51 | 36.82569 | -120.91625 | 17185 ft | 360 kts | 316° |
| 2026-04-25 03:51 | 36.84421 | -120.93681 | 16391 ft | 352 kts | 316° |
| 2026-04-25 03:51 | 36.86237 | -120.95692 | 15530 ft | 347 kts | 316° |
| 2026-04-25 03:51 | 36.88046 | -120.97701 | 15043 ft | 350 kts | 316° |
| 2026-04-25 03:52 | 36.89782 | -120.99627 | 15061 ft | 327 kts | 316° |
| 2026-04-25 03:52 | 36.91458 | -121.01493 | 15065 ft | 325 kts | 317° |
| 2026-04-25 03:52 | 36.93188 | -121.03417 | 15081 ft | 340 kts | 317° |
| 2026-04-25 03:52 | 36.94956 | -121.05389 | 15095 ft | 339 kts | 317° |
| 2026-04-25 03:53 | 36.96726 | -121.07358 | 15098 ft | 345 kts | 317° |
| 2026-04-25 03:53 | 36.98535 | -121.09376 | 15102 ft | 350 kts | 317° |
| 2026-04-25 03:53 | 37.00363 | -121.11415 | 15104 ft | 354 kts | 317° |
| 2026-04-25 03:53 | 37.02202 | -121.13468 | 15104 ft | 353 kts | 318° |
| 2026-04-25 03:54 | 37.04015 | -121.15492 | 15100 ft | 347 kts | 318° |
| 2026-04-25 03:54 | 37.05802 | -121.17484 | 15101 ft | 341 kts | 318° |
| 2026-04-25 03:54 | 37.07561 | -121.19452 | 15030 ft | 339 kts | 318° |
| 2026-04-25 03:54 | 37.09324 | -121.21428 | 14763 ft | 340 kts | 318° |
| 2026-04-25 03:55 | 37.11081 | -121.23401 | 14516 ft | 338 kts | 319° |
| 2026-04-25 03:55 | 37.12831 | -121.25368 | 14008 ft | 338 kts | 319° |
| 2026-04-25 03:55 | 37.14569 | -121.27338 | 13504 ft | 337 kts | 319° |
| 2026-04-25 03:55 | 37.16295 | -121.29296 | 13025 ft | 334 kts | 319° |
| 2026-04-25 03:56 | 37.18011 | -121.31242 | 12554 ft | 331 kts | 319° |
| 2026-04-25 03:56 | 37.19709 | -121.33195 | 12022 ft | 330 kts | 317° |
| 2026-04-25 03:56 | 37.21388 | -121.35143 | 11548 ft | 328 kts | 317° |
| 2026-04-25 03:56 | 37.23054 | -121.37084 | 11098 ft | 325 kts | 316° |
| 2026-04-25 03:57 | 37.24703 | -121.39003 | 10674 ft | 322 kts | 316° |
| 2026-04-25 03:57 | 37.26338 | -121.40908 | 10220 ft | 320 kts | 316° |
| 2026-04-25 03:57 | 37.27964 | -121.42802 | 9780 ft | 317 kts | 316° |
| 2026-04-25 03:57 | 37.29550 | -121.44656 | 9630 ft | 304 kts | 316° |
| 2026-04-25 03:58 | 37.31065 | -121.46425 | 9551 ft | 291 kts | 316° |
| 2026-04-25 03:58 | 37.32519 | -121.48127 | 9445 ft | 281 kts | 316° |
| 2026-04-25 03:58 | 37.33941 | -121.49784 | 9204 ft | 276 kts | 316° |
| 2026-04-25 03:58 | 37.35323 | -121.51403 | 9039 ft | 270 kts | 315° |
| 2026-04-25 03:59 | 37.36692 | -121.53012 | 8735 ft | 269 kts | 315° |
| 2026-04-25 03:59 | 37.38055 | -121.54613 | 8412 ft | 268 kts | 315° |
| 2026-04-25 03:59 | 37.39409 | -121.56210 | 8106 ft | 267 kts | 315° |
| 2026-04-25 03:59 | 37.40770 | -121.57793 | 7817 ft | 266 kts | 316° |
| 2026-04-25 04:00 | 37.42138 | -121.59351 | 7526 ft | 264 kts | 316° |
| 2026-04-25 04:00 | 37.43042 | -121.60379 | 7345 ft | 263 kts | 316° |
| 2026-04-25 04:00 | 37.44351 | -121.61953 | 7129 ft | 257 kts | 309° |
| 2026-04-25 04:00 | 37.45427 | -121.63682 | 7022 ft | 245 kts | 303° |
| 2026-04-25 04:01 | 37.46365 | -121.65420 | 6999 ft | 235 kts | 302° |
| 2026-04-25 04:01 | 37.47270 | -121.67095 | 6839 ft | 231 kts | 302° |
| 2026-04-25 04:01 | 37.48159 | -121.68736 | 6730 ft | 224 kts | 302° |
| 2026-04-25 04:01 | 37.49049 | -121.70340 | 6536 ft | 223 kts | 303° |
| 2026-04-25 04:02 | 37.49956 | -121.71920 | 6355 ft | 221 kts | 303° |
| 2026-04-25 04:02 | 37.50844 | -121.73474 | 6261 ft | 215 kts | 303° |
| 2026-04-25 04:02 | 37.51705 | -121.74964 | 6208 ft | 206 kts | 303° |
| 2026-04-25 04:02 | 37.52535 | -121.76391 | 6147 ft | 199 kts | 304° |
| 2026-04-25 04:03 | 37.53293 | -121.77927 | 5594 ft | 214 kts | 284° |
| 2026-04-25 04:03 | 37.53560 | -121.79772 | 5271 ft | 215 kts | 274° |
| 2026-04-25 04:03 | 37.53729 | -121.81621 | 5123 ft | 210 kts | 273° |
| 2026-04-25 04:03 | 37.53895 | -121.83411 | 5011 ft | 202 kts | 274° |
| 2026-04-25 04:04 | 37.54070 | -121.85167 | 5007 ft | 209 kts | 274° |
| 2026-04-25 04:04 | 37.54262 | -121.87046 | 5010 ft | 221 kts | 275° |
| 2026-04-25 04:04 | 37.54476 | -121.88982 | 4975 ft | 223 kts | 275° |
| 2026-04-25 04:04 | 37.54705 | -121.90869 | 4846 ft | 216 kts | 276° |
| 2026-04-25 04:05 | 37.54935 | -121.92733 | 4631 ft | 215 kts | 276° |
| 2026-04-25 04:05 | 37.55167 | -121.94565 | 4504 ft | 208 kts | 276° |
| 2026-04-25 04:05 | 37.55385 | -121.96333 | 4447 ft | 203 kts | 275° |
| 2026-04-25 04:05 | 37.55623 | -121.98134 | 4422 ft | 214 kts | 282° |
| 2026-04-25 04:06 | 37.56411 | -121.99751 | 4413 ft | 222 kts | 316° |
| 2026-04-25 04:06 | 37.57507 | -122.01127 | 4092 ft | 221 kts | 303° |
| 2026-04-25 04:06 | 37.58371 | -122.02736 | 3789 ft | 222 kts | 300° |
| 2026-04-25 04:06 | 37.59216 | -122.04373 | 3500 ft | 222 kts | 300° |
| 2026-04-25 04:07 | 37.60056 | -122.05985 | 3205 ft | 217 kts | 300° |
| 2026-04-25 04:07 | 37.60879 | -122.07487 | 2911 ft | 199 kts | 304° |
| 2026-04-25 04:07 | 37.61707 | -122.08791 | 2635 ft | 183 kts | 306° |
| 2026-04-25 04:07 | 37.62497 | -122.09977 | 2373 ft | 172 kts | 307° |
| 2026-04-25 04:08 | 37.63259 | -122.11119 | 2123 ft | 168 kts | 307° |
| 2026-04-25 04:08 | 37.63996 | -122.12206 | 1924 ft | 152 kts | 307° |
| 2026-04-25 04:08 | 37.64617 | -122.13128 | 1748 ft | 132 kts | 306° |
| 2026-04-25 04:08 | 37.65210 | -122.14013 | 1559 ft | 134 kts | 306° |
| 2026-04-25 04:09 | 37.65807 | -122.14909 | 1378 ft | 133 kts | 306° |
| 2026-04-25 04:09 | 37.66399 | -122.15807 | 1209 ft | 134 kts | 306° |
| 2026-04-25 04:09 | 37.67003 | -122.16727 | 1024 ft | 138 kts | 306° |
| 2026-04-25 04:09 | 37.67613 | -122.17656 | 823 ft | 137 kts | 307° |
| 2026-04-25 04:10 | 37.68218 | -122.18559 | 634 ft | 133 kts | 306° |
| 2026-04-25 04:10 | 37.68832 | -122.19456 | 456 ft | 134 kts | 307° |
| 2026-04-25 04:10 | 37.69445 | -122.20362 | 288 ft | 138 kts | 307° |
| 2026-04-25 04:10 | 37.70046 | -122.21262 | 134 ft | 127 kts | 305° |
| 2026-04-25 04:11 | 37.71006 | -122.22719 | 15 ft | 67 kts | 310° |
| 2026-04-25 04:11 | 37.71191 | -122.22980 | 16 ft | 34 kts | 316° |
| 2026-04-25 04:11 | 37.71373 | -122.23123 | 15 ft | 24 kts | 340° |
| 2026-04-25 04:12 | 37.71447 | -122.23149 | 15 ft | 0 kts | 350° |
| 2026-04-25 04:12 | 37.71457 | -122.23150 | 15 ft | 1 kts | 359° |
| 2026-04-25 04:12 | 37.71462 | -122.23149 | 15 ft | 0 kts | 6° |
| 2026-04-25 04:12 | 37.71463 | -122.23149 | 15 ft | 1 kts | 7° |
| 2026-04-25 04:13 | 37.71471 | -122.23147 | 15 ft | 2 kts | 17° |
| 2026-04-25 04:13 | 37.71487 | -122.23136 | 15 ft | 3 kts | 37° |
| 2026-04-25 04:13 | 37.71497 | -122.23079 | 15 ft | 13 kts | 113° |
| 2026-04-25 04:13 | 37.71441 | -122.22987 | 17 ft | 14 kts | 130° |
| 2026-04-25 04:14 | 37.71377 | -122.22891 | 16 ft | 15 kts | 130° |
| 2026-04-25 04:14 | 37.71308 | -122.22787 | 16 ft | 16 kts | 130° |
| 2026-04-25 04:14 | 37.71235 | -122.22678 | 16 ft | 16 kts | 130° |
| 2026-04-25 04:14 | 37.71174 | -122.22587 | 16 ft | 12 kts | 130° |
| 2026-04-25 04:15 | 37.71118 | -122.22502 | 16 ft | 13 kts | 129° |
| 2026-04-25 04:15 | 37.71130 | -122.22412 | 17 ft | 12 kts | 45° |
| 2026-04-25 04:15 | 37.71198 | -122.22340 | 15 ft | 14 kts | 39° |
| 2026-04-25 04:15 | 37.71273 | -122.22260 | 16 ft | 15 kts | 40° |
| 2026-04-25 04:16 | 37.71268 | -122.22153 | 15 ft | 14 kts | 130° |
| 2026-04-25 04:16 | 37.71203 | -122.22055 | 15 ft | 15 kts | 129° |
| 2026-04-25 04:16 | 37.71132 | -122.21950 | 15 ft | 16 kts | 131° |
| 2026-04-25 04:16 | 37.71082 | -122.21841 | 15 ft | 12 kts | 79° |
| 2026-04-25 04:17 | 37.71138 | -122.21769 | 15 ft | 11 kts | 36° |
| 2026-04-25 04:17 | 37.71154 | -122.21694 | 15 ft | 9 kts | 107° |
| 2026-04-25 04:17 | 37.71136 | -122.21653 | 15 ft | 3 kts | 130° |
| 2026-04-25 04:17 | 37.71132 | -122.21647 | 15 ft | 0 kts | 130° |